»·PEaware :: DAL1013 KSLC-KLAS

DAL1013 :: KSLC-KLAS

FLIGHT INFORMATION

Flight Status: Arrived
Operator:
Delta Air Lines
More flights by this operator :: More flights under this callsign
Pilot: Joe C. (19058)
Aircraft: BOEING 737-800
(B738)
More flights by this aircraft type
Origin: KSLC Salt Lake City Intl
United States
Destination: KLAS McCarran Intl
United States
More flights between these airports :: More routes between these airports
Route: +EDETH5 MLF MPIRE SITEE2
File this flight plan on PilotEdge
Remarks: PBN / A1B1C1D1S1S2 DOF / 180429 REG / N806SB EET / KZLA0037 OPR / DAL PER / C RMK / TCAS SIMBRIEF
Altitude:
(Current/Filed)
38,000ft
Speed:
(Current/Filed)
457kts
Departed: 29-Apr-18 03:06 PM
Arrived: 29-Apr-18 04:10 PM
Distance/Time
Traveled:
320nm/1:04
Distance/Time
To Go:
Arrived

Flight Plot

Page will automatically refresh every two minutes.

Flight plan parsing failed; only flown route is shown


Map Options




Map Legend


Flown Route
Filed Route
Departure Airport
Arrival Airport
Navaid (VOR, NDB)
Fix

Horizontal Profiles

Position Reports

Time Latitude Longitude Heading Altitude Ground
Speed
29-Apr-18 14:42 40.787356 -111.977796 269 4223ft 0kts
29-Apr-18 14:43 40.787356 -111.977796 269 4223ft 0kts
29-Apr-18 14:44 40.787356 -111.977796 269 4223ft 0kts
29-Apr-18 14:45 40.787356 -111.977796 269 4223ft 0kts
29-Apr-18 14:46 40.787356 -111.977796 269 4223ft 0kts
29-Apr-18 14:47 40.787356 -111.977796 269 4223ft 0kts
29-Apr-18 14:49 40.787356 -111.977796 269 4223ft 0kts
29-Apr-18 14:50 40.787356 -111.977796 269 4223ft 0kts
29-Apr-18 14:51 40.787356 -111.977796 269 4223ft 0kts
29-Apr-18 14:52 40.787356 -111.977796 269 4223ft 0kts
29-Apr-18 14:52 40.787356 -111.977796 269 4223ft 0kts
29-Apr-18 14:53 40.787356 -111.977796 269 4223ft 0kts
29-Apr-18 14:54 40.787356 -111.977796 269 4223ft 0kts
29-Apr-18 14:55 40.787356 -111.977796 269 4223ft 0kts
29-Apr-18 14:56 40.787356 -111.977796 269 4223ft 0kts
29-Apr-18 14:57 40.787357 -111.977543 269 4223ft 2kts
29-Apr-18 14:58 40.787555 -111.976916 210 4223ft 2kts
29-Apr-18 15:00 40.787858 -111.976843 173 4223ft 0kts
29-Apr-18 15:00 40.787858 -111.976843 173 4223ft 0kts
29-Apr-18 15:01 40.785399 -111.976535 174 4226ft 21kts
29-Apr-18 15:02 40.776692 -111.975554 174 4227ft 35kts
29-Apr-18 15:03 40.775588 -111.974689 91 4227ft 0kts
29-Apr-18 15:04 40.775752 -111.973450 39 4227ft 13kts
29-Apr-18 15:05 40.805642 -111.976652 352 4733ft 190kts
29-Apr-18 15:06 40.847348 -112.025746 273 7754ft 251kts
29-Apr-18 15:07 40.827191 -112.120479 253 10026ft 310kts
29-Apr-18 15:08 40.806879 -112.220820 241 10113ft 275kts
29-Apr-18 15:09 40.742977 -112.278876 196 12417ft 296kts
29-Apr-18 15:10 40.666867 -112.297816 189 15518ft 300kts
29-Apr-18 15:11 40.583680 -112.310518 190 18408ft 306kts
29-Apr-18 15:12 40.498994 -112.326717 192 21034ft 312kts
29-Apr-18 15:13 40.412198 -112.344683 193 22894ft 327kts
29-Apr-18 15:14 40.324612 -112.367313 208 22892ft 312kts
29-Apr-18 15:15 40.242981 -112.424379 210 22894ft 340kts
29-Apr-18 15:16 40.160270 -112.482916 210 22892ft 339kts
29-Apr-18 15:17 40.077316 -112.541540 210 22881ft 341kts
29-Apr-18 15:18 39.993245 -112.600704 210 25129ft 346kts
29-Apr-18 15:19 39.908944 -112.659903 210 27404ft 345kts
29-Apr-18 15:20 39.826233 -112.717555 210 29872ft 332kts
29-Apr-18 15:21 39.746634 -112.772872 211 31974ft 321kts
29-Apr-18 15:22 39.667609 -112.822425 196 33651ft 322kts
29-Apr-18 15:23 39.578994 -112.836058 193 35030ft 321kts
29-Apr-18 15:24 39.490649 -112.848715 193 36164ft 319kts
29-Apr-18 15:25 39.402670 -112.861538 193 37070ft 320kts
29-Apr-18 15:26 39.312526 -112.874854 193 37351ft 337kts
29-Apr-18 15:27 39.217341 -112.888879 192 37782ft 349kts
29-Apr-18 15:28 39.120014 -112.903182 192 37721ft 362kts
29-Apr-18 15:29 39.018280 -112.918139 192 37853ft 379kts
29-Apr-18 15:30 38.910790 -112.933884 193 37823ft 397kts
29-Apr-18 15:31 38.801764 -112.949729 193 37827ft 396kts
29-Apr-18 15:32 38.692305 -112.965624 194 37827ft 396kts
29-Apr-18 15:33 38.583296 -112.981427 194 37828ft 396kts
29-Apr-18 15:34 38.474106 -112.997221 194 37826ft 395kts
29-Apr-18 15:35 38.365416 -113.013507 199 37816ft 391kts
29-Apr-18 15:36 38.269160 -113.067904 211 37820ft 379kts
29-Apr-18 15:37 38.174101 -113.126649 211 37825ft 379kts
29-Apr-18 15:38 38.079270 -113.184933 211 37847ft 380kts
29-Apr-18 15:39 37.984445 -113.243012 211 37865ft 380kts
29-Apr-18 15:40 37.889402 -113.301017 211 37874ft 381kts
29-Apr-18 15:41 37.794239 -113.358918 211 37880ft 380kts
29-Apr-18 15:42 37.699909 -113.416098 211 37876ft 377kts
29-Apr-18 15:43 37.605003 -113.473546 211 37875ft 379kts
29-Apr-18 15:44 37.510220 -113.530737 211 37830ft 378kts
29-Apr-18 15:45 37.415433 -113.587787 211 37547ft 384kts
29-Apr-18 15:46 37.317428 -113.646588 211 36695ft 383kts
29-Apr-18 15:47 37.224388 -113.701972 211 34762ft 371kts
29-Apr-18 15:48 37.129500 -113.758425 210 32807ft 386kts
29-Apr-18 15:49 37.034494 -113.814639 211 30773ft 372kts
29-Apr-18 15:50 36.939959 -113.870619 210 28440ft 385kts
29-Apr-18 15:51 36.845173 -113.926496 209 25756ft 372kts
29-Apr-18 15:52 36.753566 -113.980360 209 23061ft 356kts
29-Apr-18 15:53 36.666905 -114.031175 208 20431ft 337kts
29-Apr-18 15:54 36.582865 -114.081613 215 18527ft 333kts
29-Apr-18 15:55 36.528980 -114.172142 236 16960ft 327kts
29-Apr-18 15:56 36.481107 -114.266924 236 15093ft 323kts
29-Apr-18 15:57 36.433453 -114.360484 236 13562ft 315kts
29-Apr-18 15:58 36.389039 -114.447321 235 12159ft 282kts
29-Apr-18 15:59 36.348741 -114.525939 235 12014ft 268kts
29-Apr-18 16:00 36.307208 -114.606665 235 12013ft 279kts
29-Apr-18 16:01 36.243748 -114.655579 200 12015ft 278kts
29-Apr-18 16:02 36.171075 -114.686578 200 11285ft 276kts
29-Apr-18 16:03 36.101082 -114.721986 223 9652ft 271kts
29-Apr-18 16:04 36.072345 -114.806667 250 8032ft 270kts
29-Apr-18 16:05 36.066032 -114.899259 272 6200ft 267kts
29-Apr-18 16:06 36.074244 -114.982763 265 4497ft 229kts
29-Apr-18 16:07 36.071672 -115.053361 273 3091ft 189kts
29-Apr-18 16:08 36.073864 -115.114269 264 2217ft 166kts
29-Apr-18 16:09 36.074333 -115.145111 299 2101ft 7kts
29-Apr-18 16:10 36.074720 -115.145924 300 2103ft 0kts
29-Apr-18 16:11 36.074919 -115.146298 310 2103ft 11kts

Navigation Log

Ident Type
Flight plan parsing failed, navigation log unavailable